createdAt,value
2024-05-09T00:00:38.307Z,100675.16
2024-05-09T00:01:22.130Z,100654.59
2024-05-09T00:02:04.260Z,100679.31
2024-05-09T00:02:46.236Z,100691.06
2024-05-09T00:03:28.126Z,100664.00
2024-05-09T00:04:10.020Z,100689.22
2024-05-09T00:04:51.917Z,100677.09
2024-05-09T00:05:33.829Z,100648.00
2024-05-09T00:06:15.973Z,100670.75
2024-05-09T00:06:57.838Z,100662.47
2024-05-09T00:07:39.655Z,100689.50
2024-05-09T00:08:21.622Z,100675.19
2024-05-09T00:09:03.604Z,100689.13
2024-05-09T00:09:45.446Z,100651.47
2024-05-09T00:10:35.515Z,100647.63
2024-05-09T00:11:20.819Z,100650.78
2024-05-09T00:12:02.951Z,100678.03
2024-05-09T00:12:44.886Z,100681.84
2024-05-09T00:13:26.698Z,100679.88
2024-05-09T00:14:08.545Z,100684.03
2024-05-09T00:14:50.445Z,100682.72
2024-05-09T00:15:33.314Z,100647.09
2024-05-09T00:16:15.596Z,100685.41
2024-05-09T00:16:57.384Z,100668.47
2024-05-09T00:17:39.540Z,100672.78
2024-05-09T00:18:21.757Z,100662.19
2024-05-09T00:19:03.722Z,100683.44
2024-05-09T00:19:46.786Z,100664.50
2024-05-09T00:20:36.826Z,100686.94
2024-05-09T00:21:21.805Z,100690.63
2024-05-09T00:22:03.757Z,100661.88
2024-05-09T00:22:45.612Z,100674.16
2024-05-09T00:23:27.550Z,100669.16
2024-05-09T00:24:09.738Z,100675.34
2024-05-09T00:24:51.743Z,100675.50
2024-05-09T00:25:33.582Z,100689.47
2024-05-09T00:26:19.096Z,100663.88
2024-05-09T00:27:00.915Z,100684.63
2024-05-09T00:27:42.954Z,100692.66
2024-05-09T00:28:25.848Z,100678.63
2024-05-09T00:29:07.714Z,100679.03
2024-05-09T00:29:49.540Z,100698.75
2024-05-09T00:30:35.131Z,100686.31
2024-05-09T00:31:19.001Z,100692.47
2024-05-09T00:32:00.967Z,100683.53
2024-05-09T00:32:42.900Z,100661.28
2024-05-09T00:33:25.042Z,100687.00
2024-05-09T00:34:07.220Z,100662.59
2024-05-09T00:34:49.382Z,100690.31
2024-05-09T00:35:31.388Z,100685.34
2024-05-09T00:36:13.212Z,100671.88
2024-05-09T00:36:54.990Z,100682.94
2024-05-09T00:37:36.791Z,100670.97
2024-05-09T00:38:18.704Z,100690.03
2024-05-09T00:39:00.648Z,100652.19
2024-05-09T00:39:42.464Z,100688.66
2024-05-09T00:40:35.062Z,100630.19
2024-05-09T00:41:21.099Z,100682.94
2024-05-09T00:42:03.299Z,100686.72
2024-05-09T00:42:46.849Z,100663.91
2024-05-09T00:43:28.699Z,100660.69
2024-05-09T00:44:10.542Z,100687.44
2024-05-09T00:44:52.318Z,100679.59
2024-05-09T00:45:35.226Z,100678.75
2024-05-09T00:46:17.569Z,100674.31
2024-05-09T00:46:59.622Z,100682.53
2024-05-09T00:47:44.318Z,100677.41
2024-05-09T00:48:27.072Z,100679.38
2024-05-09T00:49:09.403Z,100672.38
2024-05-09T00:49:51.394Z,100684.16
2024-05-09T00:50:37.162Z,100667.03
2024-05-09T00:51:20.171Z,100685.97
2024-05-09T00:52:02.675Z,100656.75
2024-05-09T00:52:46.235Z,100675.69
2024-05-09T00:53:28.354Z,100660.91
2024-05-09T00:54:10.198Z,100687.78
2024-05-09T00:54:52.236Z,100661.34
2024-05-09T00:55:36.035Z,100658.41
2024-05-09T00:56:21.239Z,100674.31
2024-05-09T00:57:04.496Z,100685.28
2024-05-09T00:57:47.109Z,100662.88
2024-05-09T00:58:30.309Z,100674.81
2024-05-09T00:59:12.804Z,100684.41
2024-05-09T00:59:55.502Z,100688.09
2024-05-09T01:00:40.240Z,100655.72
2024-05-09T01:01:24.785Z,100669.00
2024-05-09T01:02:06.841Z,100687.94
2024-05-09T01:02:48.872Z,100653.56
2024-05-09T01:03:31.001Z,100654.09
2024-05-09T01:04:13.787Z,100680.03
2024-05-09T01:04:55.839Z,100685.41
2024-05-09T01:05:39.580Z,100684.44
2024-05-09T01:06:21.996Z,100657.16
2024-05-09T01:07:04.254Z,100642.38
2024-05-09T01:07:46.562Z,100668.44
2024-05-09T01:08:28.531Z,100689.06
2024-05-09T01:09:10.399Z,100685.56
2024-05-09T01:09:52.227Z,100685.72
2024-05-09T01:10:35.579Z,100641.94
2024-05-09T01:11:18.448Z,100680.13
2024-05-09T01:12:00.613Z,100665.16
2024-05-09T01:12:42.558Z,100688.94
2024-05-09T01:13:24.389Z,100681.47
2024-05-09T01:14:06.501Z,100689.09
2024-05-09T01:14:48.443Z,100666.53
2024-05-09T01:15:30.319Z,100685.91
2024-05-09T01:16:13.630Z,100677.25
2024-05-09T01:16:55.666Z,100684.34
2024-05-09T01:17:37.725Z,100646.78
2024-05-09T01:18:20.159Z,100682.94
2024-05-09T01:19:04.832Z,100656.69
2024-05-09T01:19:46.895Z,100639.69
2024-05-09T01:20:39.147Z,100667.56
2024-05-09T01:21:23.969Z,100678.00
2024-05-09T01:22:08.002Z,100668.50
2024-05-09T01:22:52.338Z,100653.84
2024-05-09T01:23:34.435Z,100646.00
2024-05-09T01:24:16.616Z,100640.03
2024-05-09T01:24:58.382Z,100674.22
2024-05-09T01:25:40.334Z,100683.97
2024-05-09T01:26:22.155Z,100655.41
2024-05-09T01:27:04.265Z,100647.63
2024-05-09T01:27:46.065Z,100673.94
2024-05-09T01:28:27.924Z,100635.88
2024-05-09T01:29:09.877Z,100675.13
2024-05-09T01:29:51.648Z,100640.63
2024-05-09T01:30:36.104Z,100651.94
2024-05-09T01:31:19.418Z,100635.00
2024-05-09T01:32:01.384Z,100663.25
2024-05-09T01:32:43.623Z,100691.56
2024-05-09T01:33:25.858Z,100668.16
2024-05-09T01:34:07.955Z,100681.09
2024-05-09T01:34:49.970Z,100686.16
2024-05-09T01:35:32.044Z,100634.66
2024-05-09T01:36:13.909Z,100662.00
2024-05-09T01:36:55.766Z,100673.56
2024-05-09T01:37:37.594Z,100623.34
2024-05-09T01:38:19.917Z,100681.09
2024-05-09T01:39:01.956Z,100669.75
2024-05-09T01:39:43.718Z,100678.38
2024-05-09T01:40:35.410Z,100664.56
2024-05-09T01:41:20.299Z,100691.03
2024-05-09T01:42:02.190Z,100681.75
2024-05-09T01:42:44.435Z,100653.22
2024-05-09T01:43:26.256Z,100677.53
2024-05-09T01:44:08.080Z,100654.34
2024-05-09T01:44:49.968Z,100666.00
2024-05-09T01:45:31.853Z,100652.94
2024-05-09T01:46:15.299Z,100656.63
2024-05-09T01:46:57.084Z,100669.59
2024-05-09T01:47:39.141Z,100673.09
2024-05-09T01:48:21.638Z,100659.94
2024-05-09T01:49:04.532Z,100655.50
2024-05-09T01:49:46.443Z,100666.06
2024-05-09T01:50:37.729Z,100613.59
2024-05-09T01:51:22.901Z,100666.69
2024-05-09T01:52:04.864Z,100680.13
2024-05-09T01:52:46.625Z,100679.72
2024-05-09T01:53:28.518Z,100679.34
2024-05-09T01:54:10.324Z,100676.31
2024-05-09T01:54:52.240Z,100615.78
2024-05-09T01:55:34.030Z,100638.13
2024-05-09T01:56:15.888Z,100641.59
2024-05-09T01:56:57.839Z,100662.41
2024-05-09T01:57:39.702Z,100682.09
2024-05-09T01:58:22.575Z,100664.38
2024-05-09T01:59:06.180Z,100632.91
2024-05-09T01:59:47.945Z,100668.53
2024-05-09T02:00:38.623Z,100677.13
2024-05-09T02:01:23.495Z,100669.34
2024-05-09T02:02:05.535Z,100670.47
2024-05-09T02:02:47.636Z,100615.06
2024-05-09T02:03:29.782Z,100659.94
2024-05-09T02:04:12.066Z,100665.47
2024-05-09T02:04:54.224Z,100643.16
2024-05-09T02:05:36.194Z,100656.31
2024-05-09T02:06:18.203Z,100674.94
2024-05-09T02:07:00.072Z,100664.22
2024-05-09T02:07:41.867Z,100645.75
2024-05-09T02:08:23.728Z,100646.72
2024-05-09T02:09:05.578Z,100608.16
2024-05-09T02:09:47.691Z,100664.78
2024-05-09T02:10:32.707Z,100663.34
2024-05-09T02:11:15.264Z,100654.59
2024-05-09T02:11:57.365Z,100640.00
2024-05-09T02:12:40.126Z,100662.84
2024-05-09T02:13:22.007Z,100656.63
2024-05-09T02:14:03.807Z,100658.00
2024-05-09T02:14:45.620Z,100661.06
2024-05-09T02:15:27.813Z,100637.28
2024-05-09T02:16:12.308Z,100657.38
2024-05-09T02:16:54.159Z,100661.44
2024-05-09T02:17:36.484Z,100643.09
2024-05-09T02:18:20.640Z,100665.28
2024-05-09T02:19:02.719Z,100637.28
2024-05-09T02:19:44.607Z,100665.47
2024-05-09T02:20:33.862Z,100642.19
2024-05-09T02:21:18.286Z,100651.75
2024-05-09T02:22:00.086Z,100669.81
2024-05-09T02:22:41.893Z,100663.69
2024-05-09T02:23:23.734Z,100648.34
2024-05-09T02:24:06.056Z,100637.50
2024-05-09T02:24:47.870Z,100638.88
2024-05-09T02:25:29.980Z,100639.09
2024-05-09T02:26:11.847Z,100664.75
2024-05-09T02:26:53.643Z,100627.56
2024-05-09T02:27:35.475Z,100646.41
2024-05-09T02:28:17.272Z,100609.00
2024-05-09T02:28:59.683Z,100646.63
2024-05-09T02:29:43.215Z,100638.41
2024-05-09T02:30:35.038Z,100620.84
2024-05-09T02:31:21.376Z,100656.47
2024-05-09T02:32:03.377Z,100640.59
2024-05-09T02:32:45.355Z,100648.75
2024-05-09T02:33:27.401Z,100636.47
2024-05-09T02:34:09.457Z,100646.59
2024-05-09T02:34:51.374Z,100657.31
2024-05-09T02:35:33.634Z,100670.25
2024-05-09T02:36:18.668Z,100617.50
2024-05-09T02:37:00.831Z,100642.03
2024-05-09T02:37:42.759Z,100666.59
2024-05-09T02:38:24.720Z,100658.69
2024-05-09T02:39:06.613Z,100668.97
2024-05-09T02:39:48.431Z,100658.19
2024-05-09T02:40:36.690Z,100649.56
2024-05-09T02:41:20.773Z,100662.63
2024-05-09T02:42:02.846Z,100618.69
2024-05-09T02:42:44.807Z,100641.44
2024-05-09T02:43:26.717Z,100655.81
2024-05-09T02:44:08.862Z,100665.66
2024-05-09T02:44:50.738Z,100668.00
2024-05-09T02:45:32.560Z,100666.34
2024-05-09T02:46:14.550Z,100666.28
2024-05-09T02:46:56.349Z,100665.84
2024-05-09T02:47:38.561Z,100661.56
2024-05-09T02:48:20.653Z,100638.38
2024-05-09T02:49:03.000Z,100666.91
2024-05-09T02:49:45.018Z,100665.47
2024-05-09T02:50:34.419Z,100641.34
2024-05-09T02:51:20.665Z,100657.34
2024-05-09T02:52:02.565Z,100652.06
2024-05-09T02:52:44.486Z,100632.16
2024-05-09T02:53:26.509Z,100637.88
2024-05-09T02:54:09.975Z,100663.09
2024-05-09T02:54:51.822Z,100669.13
2024-05-09T02:55:34.320Z,100663.63
2024-05-09T02:56:16.110Z,100629.19
2024-05-09T02:56:57.874Z,100659.66
2024-05-09T02:57:39.794Z,100643.06
2024-05-09T02:58:21.602Z,100665.25
2024-05-09T02:59:03.630Z,100626.06
2024-05-09T02:59:45.477Z,100637.84
2024-05-09T03:00:35.259Z,100637.44
2024-05-09T03:01:21.382Z,100653.56
2024-05-09T03:02:03.407Z,100650.22
2024-05-09T03:02:45.493Z,100617.38
2024-05-09T03:03:27.771Z,100661.88
2024-05-09T03:04:09.815Z,100633.31
2024-05-09T03:04:51.848Z,100628.34
2024-05-09T03:05:33.835Z,100638.59
2024-05-09T03:06:15.861Z,100658.28
2024-05-09T03:06:57.679Z,100634.28
2024-05-09T03:07:43.167Z,100636.50
2024-05-09T03:08:25.109Z,100617.25
2024-05-09T03:09:09.235Z,100640.41
2024-05-09T03:09:51.027Z,100574.72
2024-05-09T03:10:36.370Z,100651.19
2024-05-09T03:11:24.513Z,100665.19
2024-05-09T03:12:07.466Z,100649.13
2024-05-09T03:12:49.513Z,100667.25
2024-05-09T03:13:31.376Z,100646.50
2024-05-09T03:14:17.069Z,100670.91
2024-05-09T03:14:58.847Z,100658.03
2024-05-09T03:15:40.636Z,100672.84
2024-05-09T03:16:22.716Z,100638.91
2024-05-09T03:17:04.780Z,100639.97
2024-05-09T03:17:46.798Z,100646.66
2024-05-09T03:18:28.930Z,100661.59
2024-05-09T03:19:11.031Z,100665.44
2024-05-09T03:19:52.998Z,100669.31
2024-05-09T03:20:36.264Z,100678.47
2024-05-09T03:21:18.922Z,100647.50
2024-05-09T03:22:00.749Z,100649.84
2024-05-09T03:22:42.518Z,100663.31
2024-05-09T03:23:24.343Z,100655.69
2024-05-09T03:24:10.764Z,100644.22
2024-05-09T03:24:52.615Z,100660.03
2024-05-09T03:25:34.630Z,100666.41
2024-05-09T03:26:18.151Z,100647.84
2024-05-09T03:27:00.084Z,100644.84
2024-05-09T03:27:42.081Z,100663.53
2024-05-09T03:28:23.859Z,100676.59
2024-05-09T03:29:05.768Z,100681.31
2024-05-09T03:29:47.585Z,100643.75
2024-05-09T03:30:36.640Z,100668.44
2024-05-09T03:31:23.550Z,100675.94
2024-05-09T03:32:05.612Z,100655.41
2024-05-09T03:32:47.737Z,100674.16
2024-05-09T03:33:29.914Z,100662.09
2024-05-09T03:34:12.326Z,100676.34
2024-05-09T03:34:54.150Z,100677.47
2024-05-09T03:35:36.015Z,100676.03
2024-05-09T03:36:17.869Z,100644.84
2024-05-09T03:36:59.622Z,100650.13
2024-05-09T03:37:41.437Z,100663.09
2024-05-09T03:38:23.290Z,100634.38
2024-05-09T03:39:05.112Z,100677.88
2024-05-09T03:39:46.876Z,100650.69
2024-05-09T03:40:30.907Z,100676.59
2024-05-09T03:41:13.251Z,100655.53
2024-05-09T03:41:55.117Z,100672.31
2024-05-09T03:42:41.743Z,100667.44
2024-05-09T03:43:23.870Z,100654.75
2024-05-09T03:44:05.766Z,100665.00
2024-05-09T03:44:47.737Z,100666.94
2024-05-09T03:45:29.477Z,100653.28
2024-05-09T03:46:11.391Z,100670.31
2024-05-09T03:46:53.281Z,100664.63
2024-05-09T03:47:35.659Z,100644.97
2024-05-09T03:48:17.807Z,100652.19
2024-05-09T03:48:59.915Z,100669.78
2024-05-09T03:49:41.756Z,100664.66
2024-05-09T03:50:30.123Z,100669.09
2024-05-09T03:51:15.801Z,100670.06
2024-05-09T03:51:57.652Z,100643.06
2024-05-09T03:52:40.388Z,100672.19
2024-05-09T03:53:22.936Z,100673.31
2024-05-09T03:54:04.914Z,100655.13
2024-05-09T03:54:48.841Z,100648.34
2024-05-09T03:55:31.120Z,100678.56
2024-05-09T03:56:13.111Z,100676.91
2024-05-09T03:56:55.093Z,100652.91
2024-05-09T03:57:36.974Z,100643.66
2024-05-09T03:58:19.210Z,100671.63
2024-05-09T03:59:01.252Z,100672.19
2024-05-09T03:59:43.104Z,100667.75
2024-05-09T04:00:31.562Z,100674.28
2024-05-09T04:01:19.446Z,100645.84
2024-05-09T04:02:01.417Z,100658.16
2024-05-09T04:02:47.313Z,100643.75
2024-05-09T04:03:29.700Z,100666.78
2024-05-09T04:04:11.648Z,100661.31
2024-05-09T04:04:53.608Z,100641.66
2024-05-09T04:05:35.627Z,100635.78
2024-05-09T04:06:24.050Z,100671.50
2024-05-09T04:07:05.866Z,100668.97
2024-05-09T04:07:47.726Z,100623.66
2024-05-09T04:08:29.626Z,100673.78
2024-05-09T04:09:11.411Z,100642.66
2024-05-09T04:09:53.200Z,100648.53
2024-05-09T04:10:35.581Z,100609.84
2024-05-09T04:11:17.723Z,100670.38
2024-05-09T04:11:59.616Z,100647.09
2024-05-09T04:12:41.443Z,100645.13
2024-05-09T04:13:23.473Z,100658.00
2024-05-09T04:14:05.353Z,100681.44
2024-05-09T04:14:47.125Z,100645.66
2024-05-09T04:15:28.945Z,100660.63
2024-05-09T04:16:11.734Z,100668.25
2024-05-09T04:16:53.540Z,100664.44
2024-05-09T04:17:35.585Z,100673.09
2024-05-09T04:18:18.142Z,100671.75
2024-05-09T04:19:00.110Z,100674.09
2024-05-09T04:19:41.959Z,100672.50
2024-05-09T04:20:33.538Z,100634.53
2024-05-09T04:21:20.328Z,100673.22
2024-05-09T04:22:02.086Z,100678.22
2024-05-09T04:22:43.897Z,100667.75
2024-05-09T04:23:25.843Z,100669.97
2024-05-09T04:24:07.690Z,100666.78
2024-05-09T04:24:49.471Z,100660.56
2024-05-09T04:25:34.091Z,100672.88
2024-05-09T04:26:15.946Z,100674.69
2024-05-09T04:26:57.748Z,100681.75
2024-05-09T04:27:39.591Z,100653.50
2024-05-09T04:28:21.641Z,100674.69
2024-05-09T04:29:03.463Z,100665.56
2024-05-09T04:29:45.326Z,100664.03
2024-05-09T04:30:36.072Z,100664.56
2024-05-09T04:31:20.906Z,100658.03
2024-05-09T04:32:04.705Z,100651.59
2024-05-09T04:32:46.828Z,100648.28
2024-05-09T04:33:29.518Z,100668.59
2024-05-09T04:34:11.655Z,100670.69
2024-05-09T04:34:53.546Z,100671.22
2024-05-09T04:35:35.579Z,100674.53
2024-05-09T04:36:17.490Z,100673.69
2024-05-09T04:36:59.274Z,100654.56
2024-05-09T04:37:41.026Z,100633.72
2024-05-09T04:38:22.916Z,100664.47
2024-05-09T04:39:04.789Z,100685.66
2024-05-09T04:39:46.555Z,100686.78
2024-05-09T04:40:33.649Z,100671.22
2024-05-09T04:41:17.932Z,100666.91
2024-05-09T04:41:59.717Z,100697.59
2024-05-09T04:42:41.658Z,100691.00
2024-05-09T04:43:23.463Z,100661.06
2024-05-09T04:44:05.222Z,100667.19
2024-05-09T04:44:47.046Z,100683.00
2024-05-09T04:45:28.872Z,100660.84
2024-05-09T04:46:11.098Z,100668.91
2024-05-09T04:46:52.947Z,100678.63
2024-05-09T04:47:34.902Z,100672.53
2024-05-09T04:48:17.310Z,100689.91
2024-05-09T04:48:59.253Z,100658.75
2024-05-09T04:49:42.374Z,100695.91
2024-05-09T04:50:33.472Z,100663.78
2024-05-09T04:51:19.280Z,100695.81
2024-05-09T04:52:01.096Z,100695.13
2024-05-09T04:52:42.935Z,100614.16
2024-05-09T04:53:24.793Z,100660.03
2024-05-09T04:54:08.478Z,100681.66
2024-05-09T04:54:54.086Z,100656.84
2024-05-09T04:55:36.768Z,100675.09
2024-05-09T04:56:18.743Z,100666.47
2024-05-09T04:57:00.607Z,100678.09
2024-05-09T04:57:42.496Z,100694.41
2024-05-09T04:58:24.283Z,100681.34
2024-05-09T04:59:06.239Z,100700.59
2024-05-09T04:59:49.232Z,100705.31
2024-05-09T05:00:36.509Z,100709.97
2024-05-09T05:01:20.851Z,100680.97
2024-05-09T05:02:02.866Z,100666.94
2024-05-09T05:02:44.842Z,100684.63
2024-05-09T05:03:26.879Z,100692.34
2024-05-09T05:04:09.208Z,100694.69
2024-05-09T05:04:51.108Z,100688.88
2024-05-09T05:05:33.134Z,100674.13
2024-05-09T05:06:15.279Z,100701.28
2024-05-09T05:06:58.358Z,100691.97
2024-05-09T05:07:42.207Z,100700.81
2024-05-09T05:08:24.022Z,100698.84
2024-05-09T05:09:05.808Z,100666.47
2024-05-09T05:09:47.561Z,100697.88
2024-05-09T05:10:35.055Z,100689.25
2024-05-09T05:11:19.102Z,100669.31
2024-05-09T05:12:02.873Z,100689.56
2024-05-09T05:13:03.472Z,100669.31
2024-05-09T05:13:46.665Z,100667.44
2024-05-09T05:14:28.669Z,100696.44
2024-05-09T05:15:10.458Z,100693.56
2024-05-09T05:15:56.077Z,100682.00
2024-05-09T05:16:38.892Z,100692.03
2024-05-09T05:17:20.811Z,100694.53
2024-05-09T05:18:02.818Z,100681.53
2024-05-09T05:18:44.830Z,100693.72
2024-05-09T05:19:26.742Z,100670.75
2024-05-09T05:20:12.700Z,100699.09
2024-05-09T05:20:58.015Z,100699.75
2024-05-09T05:21:39.881Z,100706.91
2024-05-09T05:22:23.322Z,100689.78
2024-05-09T05:23:08.745Z,100721.88
2024-05-09T05:23:50.529Z,100729.75
2024-05-09T05:24:32.337Z,100731.66
2024-05-09T05:25:14.193Z,100730.88
2024-05-09T05:25:56.118Z,100729.06
2024-05-09T05:26:39.025Z,100734.78
2024-05-09T05:27:20.800Z,100734.22
2024-05-09T05:28:02.637Z,100734.50
2024-05-09T05:28:44.504Z,100720.84
2024-05-09T05:29:26.381Z,100745.88
2024-05-09T05:30:14.682Z,100727.94
2024-05-09T05:30:59.684Z,100735.09
2024-05-09T05:31:41.593Z,100715.13
2024-05-09T05:32:23.585Z,100722.25
2024-05-09T05:33:06.909Z,100733.38
2024-05-09T05:33:49.201Z,100733.88
2024-05-09T05:34:31.543Z,100739.13
2024-05-09T05:35:13.450Z,100736.91
2024-05-09T05:35:55.816Z,100679.16
2024-05-09T05:36:37.608Z,100753.25
2024-05-09T05:37:19.397Z,100724.44
2024-05-09T05:38:01.348Z,100662.06
2024-05-09T05:38:43.699Z,100748.13
2024-05-09T05:39:26.086Z,100750.16
2024-05-09T05:40:11.895Z,100748.59
2024-05-09T05:40:56.573Z,100747.63
2024-05-09T05:41:38.488Z,100725.28
2024-05-09T05:42:20.329Z,100734.22
2024-05-09T05:43:02.776Z,100708.78
2024-05-09T05:43:44.597Z,100721.69
2024-05-09T05:44:26.423Z,100692.78
2024-05-09T05:45:09.878Z,100727.72
2024-05-09T05:45:51.840Z,100738.44
2024-05-09T05:46:33.599Z,100745.72
2024-05-09T05:47:15.585Z,100711.63
2024-05-09T05:47:57.752Z,100744.88
2024-05-09T05:48:39.851Z,100721.00
2024-05-09T05:49:21.747Z,100724.59
2024-05-09T05:50:07.213Z,100735.94
2024-05-09T05:50:53.613Z,100719.19
2024-05-09T05:51:35.413Z,100721.84
2024-05-09T05:52:17.278Z,100729.09
2024-05-09T05:52:59.090Z,100730.53
2024-05-09T05:53:41.047Z,100738.09
2024-05-09T05:54:22.952Z,100736.06
2024-05-09T05:55:05.355Z,100704.03
2024-05-09T05:55:47.319Z,100686.50
2024-05-09T05:56:29.257Z,100693.66
2024-05-09T05:57:11.116Z,100696.84
2024-05-09T05:57:52.964Z,100707.03
2024-05-09T05:58:34.766Z,100703.03
2024-05-09T05:59:16.611Z,100718.84
2024-05-09T05:59:58.416Z,100680.53
2024-05-09T06:00:41.629Z,100671.09
2024-05-09T06:01:24.255Z,100692.31
2024-05-09T06:02:06.307Z,100716.56
2024-05-09T06:02:48.178Z,100724.31
2024-05-09T06:03:30.173Z,100709.59
2024-05-09T06:04:12.245Z,100707.41
2024-05-09T06:04:54.368Z,100656.16
2024-05-09T06:05:36.957Z,100709.56
2024-05-09T06:06:19.001Z,100724.31
2024-05-09T06:07:00.837Z,100698.94
2024-05-09T06:07:42.606Z,100703.94
2024-05-09T06:08:27.125Z,100709.06
2024-05-09T06:09:10.633Z,100699.63
2024-05-09T06:09:52.437Z,100722.50
2024-05-09T06:10:38.514Z,100699.44
2024-05-09T06:11:22.377Z,100707.06
2024-05-09T06:12:04.909Z,100722.81
2024-05-09T06:12:46.771Z,100732.78
2024-05-09T06:13:28.754Z,100727.81
2024-05-09T06:14:10.667Z,100714.34
2024-05-09T06:14:52.438Z,100706.56
2024-05-09T06:15:34.982Z,100734.09
2024-05-09T06:16:16.796Z,100721.47
2024-05-09T06:16:59.185Z,100705.72
2024-05-09T06:17:41.083Z,100701.53
2024-05-09T06:18:23.376Z,100704.03
2024-05-09T06:19:05.434Z,100709.81
2024-05-09T06:19:47.516Z,100727.72
2024-05-09T06:20:35.909Z,100721.72
2024-05-09T06:21:19.819Z,100722.72
2024-05-09T06:22:02.993Z,100690.25
2024-05-09T06:22:44.821Z,100710.31
2024-05-09T06:23:26.650Z,100726.53
2024-05-09T06:24:08.556Z,100711.97
2024-05-09T06:24:50.415Z,100724.22
2024-05-09T06:25:32.380Z,100712.59
2024-05-09T06:26:14.400Z,100696.00
2024-05-09T06:26:56.280Z,100706.72
2024-05-09T06:27:39.961Z,100723.28
2024-05-09T06:28:21.731Z,100711.00
2024-05-09T06:29:03.566Z,100687.97
2024-05-09T06:29:45.463Z,100724.06
2024-05-09T06:30:36.567Z,100721.56
2024-05-09T06:31:21.413Z,100714.19
2024-05-09T06:32:03.773Z,100715.81
2024-05-09T06:32:45.820Z,100723.75
2024-05-09T06:33:27.917Z,100703.81
2024-05-09T06:34:10.622Z,100719.50
2024-05-09T06:34:52.464Z,100693.31
2024-05-09T06:35:34.472Z,100698.75
2024-05-09T06:36:16.303Z,100703.00
2024-05-09T06:36:58.191Z,100721.72
2024-05-09T06:37:39.958Z,100722.56
2024-05-09T06:38:21.784Z,100724.88
2024-05-09T06:39:03.730Z,100716.09
2024-05-09T06:39:46.043Z,100736.81
2024-05-09T06:40:36.290Z,100666.88
2024-05-09T06:41:21.052Z,100727.34
2024-05-09T06:42:03.034Z,100713.59
2024-05-09T06:42:44.811Z,100706.78
2024-05-09T06:43:26.594Z,100737.63
2024-05-09T06:44:09.547Z,100733.13
2024-05-09T06:44:51.427Z,100739.41
2024-05-09T06:45:33.410Z,100731.91
2024-05-09T06:46:15.325Z,100732.19
2024-05-09T06:46:59.773Z,100719.13
2024-05-09T06:47:42.592Z,100734.97
2024-05-09T06:48:24.681Z,100702.78
2024-05-09T06:49:08.838Z,100721.28
2024-05-09T06:49:50.789Z,100712.28
2024-05-09T06:50:37.507Z,100716.06
2024-05-09T06:51:21.415Z,100711.84
2024-05-09T06:52:03.640Z,100710.47
2024-05-09T06:52:48.243Z,100700.47
2024-05-09T06:53:30.251Z,100701.66
2024-05-09T06:54:12.433Z,100702.19
2024-05-09T06:54:54.447Z,100739.81
2024-05-09T06:55:37.136Z,100713.63
2024-05-09T06:56:19.057Z,100699.00
2024-05-09T06:57:00.949Z,100710.78
2024-05-09T06:57:43.210Z,100696.97
2024-05-09T06:58:25.425Z,100727.53
2024-05-09T06:59:07.275Z,100715.84
2024-05-09T06:59:49.324Z,100676.69
2024-05-09T07:00:38.515Z,100729.34
2024-05-09T07:01:22.759Z,100695.44
2024-05-09T07:02:04.732Z,100704.44
2024-05-09T07:02:46.948Z,100721.53
2024-05-09T07:03:31.882Z,100693.13
2024-05-09T07:04:13.920Z,100707.34
2024-05-09T07:04:55.927Z,100729.00
2024-05-09T07:05:37.974Z,100701.84
2024-05-09T07:06:19.782Z,100715.59
2024-05-09T07:07:01.645Z,100705.97
2024-05-09T07:07:43.434Z,100708.59
2024-05-09T07:08:25.294Z,100717.28
2024-05-09T07:09:07.095Z,100725.81
2024-05-09T07:09:49.138Z,100715.75
2024-05-09T07:10:35.050Z,100722.66
2024-05-09T07:11:18.113Z,100729.06
2024-05-09T07:12:00.013Z,100690.50
2024-05-09T07:12:41.889Z,100691.50
2024-05-09T07:13:23.735Z,100652.56
2024-05-09T07:14:06.006Z,100713.50
2024-05-09T07:14:47.971Z,100684.00
2024-05-09T07:15:29.783Z,100724.72
2024-05-09T07:16:11.574Z,100687.00
2024-05-09T07:16:53.578Z,100696.13
2024-05-09T07:17:35.964Z,100724.19
2024-05-09T07:18:20.386Z,100726.28
2024-05-09T07:19:02.893Z,100686.66
2024-05-09T07:19:45.043Z,100724.06
2024-05-09T07:20:34.011Z,100694.97
2024-05-09T07:21:17.201Z,100720.84
2024-05-09T07:21:59.953Z,100718.78
2024-05-09T07:22:41.997Z,100719.22
2024-05-09T07:23:23.826Z,100711.16
2024-05-09T07:24:06.193Z,100721.28
2024-05-09T07:24:47.987Z,100719.44
2024-05-09T07:25:30.500Z,100707.09
2024-05-09T07:26:12.531Z,100715.34
2024-05-09T07:26:54.738Z,100706.94
2024-05-09T07:27:36.499Z,100690.63
2024-05-09T07:28:20.411Z,100701.41
2024-05-09T07:29:02.320Z,100698.97
2024-05-09T07:29:44.151Z,100719.22
2024-05-09T07:30:32.894Z,100712.66
2024-05-09T07:31:16.211Z,100722.16
2024-05-09T07:31:58.320Z,100709.59
2024-05-09T07:32:40.347Z,100699.72
2024-05-09T07:33:23.788Z,100684.06
2024-05-09T07:34:06.604Z,100703.25
2024-05-09T07:34:48.733Z,100698.72
2024-05-09T07:35:31.217Z,100709.44
2024-05-09T07:36:13.278Z,100716.03
2024-05-09T07:36:55.108Z,100714.97
2024-05-09T07:37:36.911Z,100707.81
2024-05-09T07:38:19.058Z,100694.38
2024-05-09T07:39:01.166Z,100676.63
2024-05-09T07:39:43.091Z,100691.91
2024-05-09T07:40:32.902Z,100707.56
2024-05-09T07:41:18.279Z,100706.53
2024-05-09T07:42:00.165Z,100705.69
2024-05-09T07:42:41.980Z,100712.69
2024-05-09T07:43:23.766Z,100707.72
2024-05-09T07:44:05.580Z,100699.88
2024-05-09T07:44:47.471Z,100701.13
2024-05-09T07:45:45.405Z,100703.16
2024-05-09T07:47:37.089Z,100687.00
2024-05-09T07:50:53.457Z,100696.41
2024-05-09T07:52:39.210Z,100679.81
2024-05-09T07:53:22.050Z,100702.81
2024-05-09T07:53:35.945Z,100679.69
2024-05-09T07:54:03.472Z,100693.22
2024-05-09T07:54:45.959Z,100694.78
2024-05-09T07:55:28.073Z,100695.81
2024-05-09T07:56:11.622Z,100694.50
2024-05-09T07:56:54.307Z,100686.09
2024-05-09T07:57:37.283Z,100660.56
2024-05-09T07:58:19.256Z,100680.03
2024-05-09T07:59:01.109Z,100699.56
2024-05-09T07:59:42.968Z,100692.31
2024-05-09T08:00:31.028Z,100679.72
2024-05-09T08:01:14.016Z,100694.69
2024-05-09T08:01:56.001Z,100683.66
2024-05-09T08:02:37.918Z,100692.66
2024-05-09T08:03:20.061Z,100694.25
2024-05-09T08:04:02.025Z,100695.38
2024-05-09T08:04:44.094Z,100687.09
2024-05-09T08:05:26.224Z,100689.34
2024-05-09T08:06:08.154Z,100692.28
2024-05-09T08:06:50.231Z,100692.69
2024-05-09T08:07:35.221Z,100689.94
2024-05-09T08:08:17.115Z,100684.25
2024-05-09T08:09:03.006Z,100663.03
2024-05-09T08:09:49.633Z,100681.34
2024-05-09T08:10:31.646Z,100691.19
2024-05-09T08:11:13.729Z,100672.03
2024-05-09T08:11:55.686Z,100683.66
2024-05-09T08:12:37.577Z,100691.38
2024-05-09T08:13:19.499Z,100685.13